Time;durP1;ratioP1;P1;durP2;ratioP2;P2;SDS_P1;SDS_P2;PMS_P1;PMS_P2;Temp;Humidity;BMP_temperature;BMP_pressure;BME280_temperature;BME280_humidity;BME280_pressure;Samples;Min_cycle;Max_cycle;Signal;HPM_P1;HPM_P2
2024/01/03 00:01:28;;;;;;;26.10;4.55;;;8.40;95.80;;;;;;5097501;28;20046;-79
2024/01/03 00:03:55;;;;;;;17.83;4.93;;;8.50;95.70;;;;;;5115111;28;20039;-79
2024/01/03 00:06:21;;;;;;;18.52;4.15;;;8.50;95.20;;;;;;5114536;28;20124;-80
2024/01/03 00:08:47;;;;;;;20.08;4.03;;;8.40;94.90;;;;;;5097333;28;20126;-80
2024/01/03 00:11:20;;;;;;;12.98;3.15;;;8.50;95.00;;;;;;5097301;28;20498;-80
2024/01/03 00:14:03;;;;;;;15.52;3.40;;;8.50;95.00;;;;;;5114290;28;20071;-80
2024/01/03 00:16:29;;;;;;;14.00;3.20;;;8.50;94.90;;;;;;5097161;28;20130;-81
2024/01/03 00:18:58;;;;;;;21.75;4.50;;;8.50;95.00;;;;;;5097137;28;20047;-79
2024/01/03 00:21:26;;;;;;;20.27;4.88;;;8.40;95.10;;;;;;5113987;28;20498;-79
2024/01/03 00:23:58;;;;;;;11.40;3.55;;;8.40;94.90;;;;;;5097271;28;20036;-79
2024/01/03 00:26:27;;;;;;;14.90;3.60;;;8.50;94.90;;;;;;5114142;28;20433;-80
2024/01/03 00:28:53;;;;;;;18.38;3.85;;;8.50;94.60;;;;;;5114758;28;20433;-79
2024/01/03 00:31:25;;;;;;;23.35;5.03;;;8.50;94.20;;;;;;5096882;28;20047;-79
2024/01/03 00:33:51;;;;;;;21.02;3.50;;;8.50;94.30;;;;;;5096776;28;20491;-79
2024/01/03 00:36:17;;;;;;;11.95;3.10;;;8.50;93.80;;;;;;5114068;28;20036;-79
2024/01/03 00:38:44;;;;;;;21.92;3.80;;;8.60;93.60;;;;;;5113713;28;20069;-79
2024/01/03 00:41:09;;;;;;;20.60;3.85;;;8.60;93.50;;;;;;5113906;28;20050;-80
2024/01/03 00:43:44;;;;;;;11.68;3.40;;;8.60;93.40;;;;;;5079877;28;20036;-80
2024/01/03 00:46:11;;;;;;;21.30;3.88;;;8.60;93.70;;;;;;5063202;28;20036;-79
2024/01/03 00:48:38;;;;;;;20.88;4.90;;;8.60;93.20;;;;;;5096954;28;20035;-80
2024/01/03 00:51:04;;;;;;;21.05;4.72;;;8.60;93.30;;;;;;5096646;28;20050;-80
2024/01/03 00:53:31;;;;;;;20.10;4.25;;;8.70;93.10;;;;;;5096488;28;20036;-80
2024/01/03 00:55:57;;;;;;;12.85;3.90;;;8.70;93.40;;;;;;5113517;28;20470;-80
2024/01/03 00:58:23;;;;;;;20.52;4.93;;;8.70;93.40;;;;;;5113189;28;20119;-80
2024/01/03 01:00:49;;;;;;;20.23;5.22;;;8.70;93.50;;;;;;5096405;28;20058;-80
2024/01/03 01:03:16;;;;;;;14.23;4.70;;;8.60;93.80;;;;;;5079048;28;20043;-80
2024/01/03 01:05:43;;;;;;;18.23;5.20;;;8.60;93.90;;;;;;5079328;28;20372;-80
2024/01/03 01:08:08;;;;;;;25.40;4.20;;;8.60;94.10;;;;;;5079519;28;20126;-80
2024/01/03 01:10:34;;;;;;;32.55;3.70;;;8.60;94.00;;;;;;5062459;28;20470;-80
2024/01/03 01:13:00;;;;;;;27.15;5.53;;;8.60;93.90;;;;;;5096244;28;20101;-80
2024/01/03 01:15:25;;;;;;;18.60;4.40;;;8.60;94.10;;;;;;5096079;28;20130;-81
2024/01/03 01:17:51;;;;;;;13.68;4.03;;;8.60;93.80;;;;;;5079305;28;20047;-79
2024/01/03 01:20:17;;;;;;;18.50;3.53;;;8.60;93.80;;;;;;5095968;28;20471;-81
2024/01/03 01:22:42;;;;;;;21.63;5.07;;;8.70;93.50;;;;;;5095773;28;20043;-80
2024/01/03 01:25:08;;;;;;;13.57;4.18;;;8.70;93.40;;;;;;5095809;28;20130;-80
2024/01/03 01:27:34;;;;;;;17.00;4.88;;;8.70;93.40;;;;;;5112978;28;20096;-79
2024/01/03 01:30:00;;;;;;;15.15;3.42;;;8.70;93.40;;;;;;5095610;28;20043;-80
2024/01/03 01:32:25;;;;;;;18.02;3.72;;;8.70;93.40;;;;;;5094809;28;20381;-80
2024/01/03 01:34:51;;;;;;;25.48;5.43;;;8.70;93.50;;;;;;5078448;28;20062;-79
2024/01/03 01:37:17;;;;;;;18.40;3.83;;;8.70;93.70;;;;;;5078582;28;20035;-81
2024/01/03 01:39:44;;;;;;;22.02;4.05;;;8.70;93.70;;;;;;5061709;28;20031;-79
2024/01/03 01:42:10;;;;;;;24.10;4.50;;;8.70;93.50;;;;;;5095236;28;20047;-79
2024/01/03 01:44:36;;;;;;;20.85;3.88;;;8.70;93.40;;;;;;5112342;28;20381;-80
2024/01/03 01:47:05;;;;;;;26.38;4.93;;;8.70;93.50;;;;;;5078283;28;20046;-80
2024/01/03 01:49:32;;;;;;;10.10;3.72;;;8.70;93.40;;;;;;5112084;28;20043;-79
2024/01/03 01:51:58;;;;;;;14.77;4.40;;;8.70;93.40;;;;;;5094967;28;20130;-79
2024/01/03 01:54:25;;;;;;;24.25;4.88;;;8.70;93.40;;;;;;5112001;28;20036;-79
2024/01/03 01:56:51;;;;;;;14.68;4.10;;;8.80;93.40;;;;;;5095069;28;20070;-81
2024/01/03 01:59:20;;;;;;;12.60;3.28;;;8.70;93.40;;;;;;5078177;28;20484;-79
2024/01/03 02:01:46;;;;;;;13.35;3.15;;;8.80;93.10;;;;;;5111841;28;20487;-80
2024/01/03 02:04:12;;;;;;;21.40;3.90;;;8.80;92.80;;;;;;5094952;28;20040;-78
2024/01/03 02:06:38;;;;;;;28.92;4.63;;;8.80;92.50;;;;;;5094987;28;20126;-81
2024/01/03 02:09:04;;;;;;;16.30;3.33;;;8.80;92.50;;;;;;5094856;28;20139;-80
2024/01/03 02:11:29;;;;;;;15.98;4.03;;;8.90;92.40;;;;;;5094960;28;20045;-79
2024/01/03 02:13:55;;;;;;;17.25;3.75;;;8.90;92.40;;;;;;5112045;28;20036;-79
2024/01/03 02:16:22;;;;;;;11.10;3.53;;;8.90;92.40;;;;;;5079163;28;20458;-80
2024/01/03 02:18:48;;;;;;;15.90;3.72;;;8.90;92.10;;;;;;5099020;28;20088;-80
2024/01/03 02:21:15;;;;;;;16.15;4.28;;;9.00;92.00;;;;;;5082167;28;20373;-79
2024/01/03 02:23:42;;;;;;;16.88;3.58;;;8.90;92.20;;;;;;5098716;28;20042;-80
2024/01/03 02:26:08;;;;;;;16.75;3.20;;;9.00;92.10;;;;;;5115655;28;20040;-80
2024/01/03 02:28:34;;;;;;;16.08;2.85;;;9.00;92.00;;;;;;5098799;28;20047;-80
2024/01/03 02:31:00;;;;;;;12.73;2.80;;;9.00;91.60;;;;;;5115708;28;20043;-80
2024/01/03 02:33:26;;;;;;;11.93;2.58;;;8.90;91.70;;;;;;5098259;28;20052;-79
2024/01/03 02:35:52;;;;;;;14.98;3.88;;;9.00;91.50;;;;;;5081798;28;20047;-79
2024/01/03 02:38:18;;;;;;;22.40;4.57;;;9.00;91.50;;;;;;5081713;28;20118;-80
2024/01/03 02:40:46;;;;;;;14.02;3.28;;;9.00;91.30;;;;;;5098308;28;20126;-79
2024/01/03 02:43:12;;;;;;;18.08;3.15;;;9.00;91.30;;;;;;5081755;28;20035;-79
2024/01/03 02:45:37;;;;;;;17.48;4.68;;;9.00;91.30;;;;;;5098539;28;20126;-79
2024/01/03 02:48:03;;;;;;;13.82;3.08;;;9.00;91.20;;;;;;5081654;28;20511;-80
2024/01/03 02:50:29;;;;;;;11.90;2.58;;;9.00;91.10;;;;;;5081289;28;20570;-81
2024/01/03 02:52:55;;;;;;;7.32;2.42;;;9.00;91.00;;;;;;5081173;28;20122;-79
2024/01/03 02:55:21;;;;;;;14.57;2.88;;;9.00;90.90;;;;;;5115325;28;20042;-80
2024/01/03 02:57:47;;;;;;;12.32;2.78;;;9.00;91.00;;;;;;5115314;28;20065;-80
2024/01/03 03:00:13;;;;;;;12.18;2.67;;;9.00;91.10;;;;;;5097921;28;20502;-80
2024/01/03 03:02:39;;;;;;;11.18;2.60;;;9.00;91.10;;;;;;5116166;27;20043;-80
2024/01/03 03:05:05;;;;;;;15.25;4.25;;;9.00;91.30;;;;;;5118242;27;20041;-80
2024/01/03 03:07:30;;;;;;;14.85;4.57;;;9.00;91.00;;;;;;5135349;27;20117;-79
2024/01/03 03:09:56;;;;;;;10.73;3.38;;;9.00;91.30;;;;;;5118169;27;20039;-80
2024/01/03 03:12:21;;;;;;;15.13;2.47;;;9.00;91.40;;;;;;5135091;27;20074;-80
2024/01/03 03:14:47;;;;;;;10.98;2.97;;;9.00;91.50;;;;;;5118183;27;20031;-79
2024/01/03 03:17:13;;;;;;;12.98;2.80;;;9.00;91.30;;;;;;5118114;27;20035;-79
2024/01/03 03:19:39;;;;;;;11.65;3.63;;;9.00;91.30;;;;;;5101136;27;20050;-80
2024/01/03 03:22:05;;;;;;;9.80;1.98;;;9.00;91.20;;;;;;5117931;27;20039;-80
2024/01/03 03:24:30;;;;;;;13.90;2.88;;;9.00;91.30;;;;;;5100943;27;20080;-80
2024/01/03 03:26:56;;;;;;;7.53;1.75;;;9.00;91.30;;;;;;5100327;27;20050;-79
2024/01/03 03:29:22;;;;;;;9.90;2.28;;;9.00;91.30;;;;;;5117920;27;20088;-79
2024/01/03 03:31:48;;;;;;;13.98;2.85;;;9.00;91.70;;;;;;5117668;27;20039;-80
2024/01/03 03:34:17;;;;;;;17.02;4.18;;;9.00;91.90;;;;;;5117751;27;20104;-81
2024/01/03 03:36:43;;;;;;;17.08;3.88;;;9.00;92.20;;;;;;5117683;27;20049;-80
2024/01/03 03:39:08;;;;;;;10.45;2.20;;;9.00;92.30;;;;;;5100835;27;20122;-80
2024/01/03 03:41:35;;;;;;;13.85;3.10;;;9.00;92.40;;;;;;5100587;27;20088;-80
2024/01/03 03:44:01;;;;;;;11.40;2.67;;;9.00;92.50;;;;;;5101038;27;20440;-79
2024/01/03 03:46:30;;;;;;;8.55;1.90;;;9.00;92.20;;;;;;5100865;27;20043;-80
2024/01/03 03:48:55;;;;;;;13.85;2.55;;;9.00;92.00;;;;;;5134932;27;20057;-80
2024/01/03 03:51:21;;;;;;;10.52;2.13;;;9.00;91.90;;;;;;5117356;27;20426;-80
2024/01/03 03:53:47;;;;;;;11.35;3.10;;;9.00;91.80;;;;;;5100748;27;20065;-80
2024/01/03 03:56:26;;;;;;;12.05;1.92;;;9.00;91.80;;;;;;5134489;27;20375;-79
2024/01/03 03:58:51;;;;;;;7.10;2.28;;;9.10;91.70;;;;;;5134516;27;20031;-80
2024/01/03 04:01:18;;;;;;;11.05;2.72;;;9.10;91.60;;;;;;5117178;27;20035;-80
2024/01/03 04:03:44;;;;;;;6.68;2.03;;;9.10;91.90;;;;;;5117513;27;20039;-80
2024/01/03 04:06:12;;;;;;;14.88;2.55;;;9.10;92.00;;;;;;5134183;27;20498;-80
2024/01/03 04:08:40;;;;;;;11.02;2.08;;;9.10;92.10;;;;;;5117604;27;20403;-80
2024/01/03 04:11:06;;;;;;;10.35;2.65;;;9.00;92.50;;;;;;5117314;27;20035;-79
2024/01/03 04:13:32;;;;;;;15.43;2.50;;;9.10;92.60;;;;;;5134088;27;20513;-80
2024/01/03 04:15:57;;;;;;;9.38;2.33;;;9.00;92.80;;;;;;5116935;27;20057;-80
2024/01/03 04:18:23;;;;;;;11.25;2.13;;;9.10;92.90;;;;;;5100136;27;20046;-80
2024/01/03 04:20:49;;;;;;;8.32;1.80;;;9.10;93.00;;;;;;5099852;27;20567;-80
2024/01/03 04:23:14;;;;;;;8.45;1.90;;;9.10;93.00;;;;;;5099752;27;20368;-80
2024/01/03 04:25:40;;;;;;;6.82;2.55;;;9.10;93.20;;;;;;5099973;27;20051;-80
2024/01/03 04:28:06;;;;;;;10.77;3.08;;;9.00;93.30;;;;;;5134112;27;20495;-80
2024/01/03 04:30:31;;;;;;;15.35;4.03;;;9.00;93.60;;;;;;5083019;27;20057;-80
2024/01/03 04:32:57;;;;;;;11.60;2.20;;;9.00;93.90;;;;;;5082406;27;20484;-80
2024/01/03 04:35:23;;;;;;;11.25;2.45;;;9.00;93.90;;;;;;5100034;27;20042;-80
2024/01/03 04:37:50;;;;;;;13.60;2.85;;;9.00;93.90;;;;;;5082878;27;20039;-80
2024/01/03 04:40:16;;;;;;;9.40;2.45;;;9.00;93.80;;;;;;5132794;27;20076;-80
2024/01/03 04:42:42;;;;;;;16.77;2.83;;;9.00;93.80;;;;;;5099396;27;20039;-80
2024/01/03 04:45:08;;;;;;;13.20;3.40;;;9.00;93.80;;;;;;5099404;27;20081;-80
2024/01/03 04:47:34;;;;;;;13.18;3.20;;;9.10;93.60;;;;;;5116666;27;20083;-80
2024/01/03 04:49:59;;;;;;;16.08;3.50;;;9.10;93.60;;;;;;5133632;27;20057;-80
2024/01/03 04:52:25;;;;;;;16.98;2.72;;;9.10;93.40;;;;;;5099275;27;20487;-80
2024/01/03 04:54:51;;;;;;;16.23;4.70;;;9.10;93.50;;;;;;5116135;27;20468;-80
2024/01/03 04:57:17;;;;;;;13.15;2.88;;;9.10;93.60;;;;;;5099242;27;20043;-79
2024/01/03 04:59:42;;;;;;;11.65;2.67;;;9.10;93.60;;;;;;5099124;27;20035;-79
2024/01/03 05:02:08;;;;;;;10.73;2.63;;;9.00;93.80;;;;;;5099076;27;20035;-80
2024/01/03 05:04:34;;;;;;;7.35;2.20;;;9.00;93.90;;;;;;5082150;27;20092;-80
2024/01/03 05:07:00;;;;;;;6.88;1.80;;;9.00;94.20;;;;;;5115974;27;20050;-79
2024/01/03 05:09:25;;;;;;;14.23;2.05;;;9.00;94.10;;;;;;5099029;27;20046;-79
2024/01/03 05:11:51;;;;;;;11.27;2.67;;;9.00;94.30;;;;;;5098814;27;20448;-79
2024/01/03 05:14:17;;;;;;;8.10;1.58;;;9.00;94.50;;;;;;5115864;27;20058;-79
2024/01/03 05:16:42;;;;;;;8.90;2.03;;;8.90;94.80;;;;;;5116139;27;20360;-78
2024/01/03 05:19:08;;;;;;;10.85;1.95;;;8.90;94.90;;;;;;5115727;27;20518;-80
2024/01/03 05:21:34;;;;;;;13.32;2.50;;;8.80;95.10;;;;;;5115722;27;20035;-80
2024/01/03 05:23:59;;;;;;;18.63;3.17;;;8.70;95.30;;;;;;5116001;27;20067;-79
2024/01/03 05:26:25;;;;;;;13.23;4.25;;;8.70;95.40;;;;;;5082086;27;20035;-80
2024/01/03 05:28:51;;;;;;;28.63;4.78;;;8.70;95.70;;;;;;5133108;27;20364;-79
2024/01/03 05:31:16;;;;;;;21.55;4.95;;;8.70;95.80;;;;;;5115584;27;20526;-80
2024/01/03 05:33:42;;;;;;;30.55;5.68;;;8.80;95.90;;;;;;5098437;27;20406;-79
2024/01/03 05:36:08;;;;;;;36.83;7.82;;;8.90;95.70;;;;;;5132659;28;20077;-80
2024/01/03 05:38:37;;;;;;;26.15;6.30;;;9.00;95.40;;;;;;5115914;28;20035;-79
2024/01/03 05:41:02;;;;;;;24.10;5.35;;;9.00;95.40;;;;;;5132595;28;20031;-80
2024/01/03 05:43:28;;;;;;;25.58;5.13;;;9.00;95.20;;;;;;5098629;28;20080;-79
2024/01/03 05:45:54;;;;;;;28.00;6.05;;;9.00;95.10;;;;;;5081752;28;20039;-79
2024/01/03 05:48:19;;;;;;;24.52;5.85;;;9.00;94.90;;;;;;5115771;28;20089;-78
2024/01/03 05:50:45;;;;;;;30.73;5.72;;;9.10;94.60;;;;;;5083584;27;20403;-81
2024/01/03 05:53:11;;;;;;;21.60;4.65;;;9.10;94.70;;;;;;5102705;27;20039;-80
2024/01/03 05:55:36;;;;;;;25.42;5.55;;;9.10;94.60;;;;;;5086110;27;20057;-80
2024/01/03 05:58:02;;;;;;;27.33;4.93;;;9.10;94.50;;;;;;5119614;27;20429;-79
2024/01/03 06:00:28;;;;;;;28.50;5.97;;;9.10;94.50;;;;;;5119576;27;20041;-79
2024/01/03 06:02:54;;;;;;;27.58;5.97;;;9.10;94.50;;;;;;5102470;27;20388;-80
2024/01/03 06:05:21;;;;;;;23.27;5.53;;;9.10;94.40;;;;;;5136721;27;20088;-80
2024/01/03 06:07:47;;;;;;;21.38;5.15;;;9.10;94.40;;;;;;5119723;27;20391;-80
2024/01/03 06:10:13;;;;;;;22.08;4.93;;;9.10;94.40;;;;;;5119624;27;20035;-80
2024/01/03 06:12:41;;;;;;;20.60;4.65;;;9.10;94.20;;;;;;5119205;27;20066;-81
2024/01/03 06:15:07;;;;;;;29.65;5.90;;;9.10;94.10;;;;;;5119751;27;20390;-80
2024/01/03 06:17:33;;;;;;;23.45;4.78;;;9.10;94.20;;;;;;5102314;27;20076;-80
2024/01/03 06:19:59;;;;;;;22.27;4.85;;;9.10;94.10;;;;;;5102374;27;20075;-80
2024/01/03 06:22:24;;;;;;;18.23;4.78;;;9.10;94.10;;;;;;5085144;27;20483;-80
2024/01/03 06:24:50;;;;;;;26.20;4.88;;;9.10;94.00;;;;;;5119165;27;20126;-81
2024/01/03 06:27:16;;;;;;;27.60;5.70;;;9.10;94.10;;;;;;5102070;27;20043;-80
2024/01/03 06:29:42;;;;;;;18.67;5.07;;;9.20;94.10;;;;;;5102284;27;20042;-80
2024/01/03 06:32:08;;;;;;;22.45;5.53;;;9.20;94.00;;;;;;5085281;27;20126;-81
2024/01/03 06:34:34;;;;;;;25.02;4.82;;;9.10;94.00;;;;;;5118803;27;20130;-79
2024/01/03 06:37:00;;;;;;;22.13;4.70;;;9.20;94.10;;;;;;5118872;27;20046;-79
2024/01/03 06:39:26;;;;;;;21.45;5.45;;;9.20;94.10;;;;;;5102058;27;20035;-80
2024/01/03 06:41:52;;;;;;;33.15;6.28;;;9.20;94.00;;;;;;5102104;27;20047;-79
2024/01/03 06:44:17;;;;;;;25.70;5.70;;;9.20;94.00;;;;;;5101786;27;20604;-79
2024/01/03 06:46:43;;;;;;;31.50;6.10;;;9.20;94.40;;;;;;5100667;27;20065;-78
2024/01/03 06:49:09;;;;;;;22.08;4.47;;;9.10;94.40;;;;;;5101416;27;20110;-79
2024/01/03 06:51:34;;;;;;;21.55;5.25;;;9.20;94.50;;;;;;5118048;27;20042;-80
2024/01/03 06:54:00;;;;;;;23.92;6.70;;;9.10;94.40;;;;;;5100813;27;20031;-80
2024/01/03 06:56:26;;;;;;;28.63;6.10;;;9.20;94.20;;;;;;5101010;27;20042;-79
2024/01/03 06:58:52;;;;;;;27.25;7.57;;;9.20;94.30;;;;;;5135229;27;20068;-79
2024/01/03 07:01:17;;;;;;;20.45;4.35;;;9.20;94.40;;;;;;5134958;27;20038;-80
2024/01/03 07:03:44;;;;;;;33.55;6.22;;;9.20;94.30;;;;;;5093524;27;20051;-80
2024/01/03 07:06:09;;;;;;;27.70;5.72;;;9.10;94.50;;;;;;5117686;27;20054;-80
2024/01/03 07:08:35;;;;;;;25.42;5.40;;;9.10;94.60;;;;;;5134956;27;20035;-80
2024/01/03 07:11:01;;;;;;;20.10;4.90;;;9.10;94.70;;;;;;5117819;27;20091;-79
2024/01/03 07:13:27;;;;;;;19.63;4.47;;;9.10;94.70;;;;;;5076768;27;20401;-79
2024/01/03 07:15:52;;;;;;;20.70;3.67;;;9.00;94.80;;;;;;5117847;27;20083;-79
2024/01/03 07:18:18;;;;;;;18.02;4.00;;;9.10;94.50;;;;;;5117484;27;20035;-78
2024/01/03 07:20:44;;;;;;;20.92;4.22;;;9.10;94.30;;;;;;5117904;27;20126;-79
2024/01/03 07:23:09;;;;;;;20.25;4.22;;;9.10;94.40;;;;;;5135135;27;20078;-79
2024/01/03 07:25:35;;;;;;;20.17;4.88;;;9.10;94.40;;;;;;5118075;27;20039;-79
2024/01/03 07:28:01;;;;;;;20.55;4.38;;;9.00;94.50;;;;;;5100924;27;20066;-79
2024/01/03 07:30:28;;;;;;;23.90;4.93;;;9.00;94.70;;;;;;5118237;27;20089;-78
2024/01/03 07:32:56;;;;;;;30.77;6.55;;;9.00;94.80;;;;;;5117562;27;20062;-79
2024/01/03 07:35:25;;;;;;;30.75;6.18;;;9.00;94.70;;;;;;5118045;27;20121;-79
2024/01/03 07:37:51;;;;;;;24.23;4.35;;;9.00;95.00;;;;;;5117936;27;20043;-79
2024/01/03 07:40:17;;;;;;;25.15;5.00;;;9.00;95.00;;;;;;5117781;27;20600;-80
2024/01/03 07:42:43;;;;;;;33.47;6.05;;;9.00;94.80;;;;;;5117535;27;20453;-79
2024/01/03 07:45:09;;;;;;;27.90;5.65;;;9.00;94.90;;;;;;5134888;27;20043;-79
2024/01/03 07:47:34;;;;;;;27.30;5.65;;;9.00;95.00;;;;;;5117563;27;20050;-79
2024/01/03 07:50:00;;;;;;;26.33;5.40;;;9.00;94.90;;;;;;5117434;27;20038;-79
2024/01/03 07:52:27;;;;;;;20.23;4.43;;;9.00;95.00;;;;;;5100119;27;20399;-78
2024/01/03 07:54:53;;;;;;;15.13;4.25;;;9.00;95.10;;;;;;5134280;27;20118;-78
2024/01/03 07:57:19;;;;;;;20.83;4.45;;;9.00;95.00;;;;;;5100321;27;20039;-79
2024/01/03 07:59:45;;;;;;;25.45;6.32;;;9.00;95.10;;;;;;5100062;27;20543;-79
2024/01/03 08:02:14;;;;;;;19.60;6.13;;;9.00;94.90;;;;;;5117328;27;20047;-79
2024/01/03 08:04:40;;;;;;;20.75;4.25;;;9.00;95.10;;;;;;5117073;27;20053;-80
2024/01/03 08:07:06;;;;;;;23.58;5.00;;;9.00;94.80;;;;;;5116791;27;20044;-79
2024/01/03 08:09:34;;;;;;;22.40;4.53;;;9.00;94.90;;;;;;5099747;27;20069;-79
2024/01/03 08:12:00;;;;;;;25.38;4.68;;;9.00;94.90;;;;;;5117333;27;20473;-79
2024/01/03 08:14:26;;;;;;;13.32;3.53;;;9.00;94.80;;;;;;5116823;27;20039;-80
2024/01/03 08:16:52;;;;;;;22.38;4.30;;;9.00;94.90;;;;;;5099984;27;20372;-80
2024/01/03 08:19:18;;;;;;;17.08;4.53;;;8.90;94.90;;;;;;5116889;27;20031;-79
2024/01/03 08:21:44;;;;;;;19.35;4.47;;;8.90;95.00;;;;;;5117082;27;20118;-80
2024/01/03 08:24:10;;;;;;;21.83;5.18;;;8.90;95.10;;;;;;5117085;27;20043;-81
2024/01/03 08:26:35;;;;;;;19.65;4.43;;;8.90;95.10;;;;;;5116638;27;20372;-79
2024/01/03 08:29:01;;;;;;;22.50;5.13;;;8.90;95.10;;;;;;5099649;27;20060;-80
2024/01/03 08:31:27;;;;;;;21.17;4.70;;;8.90;95.10;;;;;;5116309;27;20035;-79
2024/01/03 08:33:52;;;;;;;18.60;3.80;;;9.00;95.00;;;;;;5099513;27;20135;-80
2024/01/03 08:36:18;;;;;;;19.27;3.75;;;8.90;95.00;;;;;;5116583;27;20131;-80
2024/01/03 08:38:44;;;;;;;20.48;3.85;;;8.90;95.00;;;;;;5116539;27;20050;-80
2024/01/03 08:41:16;;;;;;;21.20;4.05;;;9.00;94.90;;;;;;5116658;27;20050;-80
2024/01/03 08:43:42;;;;;;;28.95;5.05;;;9.00;94.80;;;;;;5116586;27;20081;-81
2024/01/03 08:46:08;;;;;;;22.40;4.75;;;8.90;94.70;;;;;;5116480;27;20498;-80
2024/01/03 08:48:34;;;;;;;22.30;4.38;;;8.90;94.60;;;;;;5082557;27;20125;-80
2024/01/03 08:51:00;;;;;;;14.95;4.35;;;9.00;94.70;;;;;;5116182;27;20126;-79
2024/01/03 08:53:26;;;;;;;25.67;4.57;;;9.00;94.40;;;;;;5116063;27;20459;-80
2024/01/03 08:55:51;;;;;;;16.80;3.92;;;9.00;94.40;;;;;;5116461;27;20092;-80
2024/01/03 08:58:17;;;;;;;20.90;3.97;;;9.00;94.30;;;;;;5133437;27;20088;-79
2024/01/03 09:00:44;;;;;;;19.65;3.55;;;9.00;94.30;;;;;;5099620;27;20058;-80
2024/01/03 09:03:10;;;;;;;14.38;3.95;;;9.00;94.10;;;;;;5116310;27;20051;-80
2024/01/03 09:05:37;;;;;;;21.15;5.32;;;9.00;94.00;;;;;;5115924;27;20107;-81
2024/01/03 09:08:03;;;;;;;15.75;3.08;;;9.00;94.00;;;;;;5099164;27;20125;-80
2024/01/03 09:10:29;;;;;;;20.17;3.90;;;9.10;93.60;;;;;;5133489;27;20079;-79
2024/01/03 09:12:55;;;;;;;16.08;4.68;;;9.10;93.60;;;;;;5098875;27;20525;-80
2024/01/03 09:15:20;;;;;;;17.95;3.95;;;9.10;93.70;;;;;;5099434;27;20378;-80
2024/01/03 09:17:46;;;;;;;16.85;3.15;;;9.10;93.70;;;;;;5116140;27;20035;-80
2024/01/03 09:20:12;;;;;;;9.73;2.33;;;9.10;93.70;;;;;;5098926;27;20151;-80
2024/01/03 09:22:38;;;;;;;15.85;2.80;;;9.00;93.60;;;;;;5098934;27;20069;-80
2024/01/03 09:25:04;;;;;;;8.20;1.80;;;9.00;93.20;;;;;;5115604;27;20045;-80
2024/01/03 09:27:30;;;;;;;5.30;1.40;;;9.00;93.20;;;;;;5115748;27;20078;-80
2024/01/03 09:29:56;;;;;;;8.38;2.25;;;9.00;93.30;;;;;;5082155;28;20071;-79
2024/01/03 09:32:21;;;;;;;16.92;4.47;;;9.00;93.40;;;;;;5098778;27;20087;-80
2024/01/03 09:34:47;;;;;;;18.02;3.47;;;9.10;93.30;;;;;;5081706;27;20035;-80
2024/01/03 09:37:16;;;;;;;15.68;3.92;;;9.10;93.50;;;;;;5115855;27;20035;-80
2024/01/03 09:39:42;;;;;;;14.65;3.55;;;9.10;93.40;;;;;;5115917;28;20088;-80
2024/01/03 09:42:08;;;;;;;21.90;3.65;;;9.10;93.40;;;;;;5115552;28;20399;-80
2024/01/03 09:44:34;;;;;;;13.25;3.40;;;9.10;93.40;;;;;;5098885;28;20179;-81
2024/01/03 09:47:01;;;;;;;18.08;4.15;;;9.20;93.50;;;;;;5116429;28;20066;-80
2024/01/03 09:49:27;;;;;;;16.88;3.13;;;9.20;93.40;;;;;;5116495;28;20106;-79
2024/01/03 09:51:54;;;;;;;20.00;4.93;;;9.20;93.60;;;;;;5115526;28;20112;-79
2024/01/03 09:54:20;;;;;;;17.50;3.67;;;9.20;93.60;;;;;;5115276;28;20505;-79
2024/01/03 09:56:47;;;;;;;19.75;3.85;;;9.20;93.60;;;;;;5098489;28;20035;-79
2024/01/03 09:59:17;;;;;;;24.02;4.05;;;9.20;93.70;;;;;;5132505;28;20147;-79
2024/01/03 10:02:05;;;;;;;21.52;4.35;;;9.20;93.90;;;;;;5132784;28;20073;-79
2024/01/03 10:04:31;;;;;;;15.75;3.25;;;9.30;94.10;;;;;;5115364;28;20118;-80
2024/01/03 10:06:59;;;;;;;15.63;4.35;;;9.20;94.10;;;;;;5132758;28;20433;-80
2024/01/03 10:09:40;;;;;;;18.67;4.55;;;9.30;94.10;;;;;;5115944;28;20067;-80
2024/01/03 10:12:18;;;;;;;13.10;2.65;;;9.40;94.10;;;;;;5132593;28;20395;-80
2024/01/03 10:14:45;;;;;;;13.38;3.58;;;9.50;93.80;;;;;;5098285;28;20088;-80
2024/01/03 10:17:11;;;;;;;10.30;2.58;;;9.60;92.90;;;;;;5098194;28;20035;-80
2024/01/03 10:19:37;;;;;;;16.40;3.40;;;9.60;92.70;;;;;;5115159;28;20070;-80
2024/01/03 10:22:04;;;;;;;16.85;3.92;;;9.60;92.00;;;;;;5115373;28;20078;-79
2024/01/03 10:24:31;;;;;;;13.55;3.20;;;9.60;92.00;;;;;;5098394;28;20047;-80
2024/01/03 10:27:11;;;;;;;17.98;4.70;;;9.60;92.20;;;;;;5115470;28;20046;-80
2024/01/03 10:29:38;;;;;;;17.27;4.85;;;9.60;92.30;;;;;;5115329;28;20035;-80
2024/01/03 10:32:09;;;;;;;21.48;4.00;;;9.60;92.60;;;;;;5132330;28;20047;-79
2024/01/03 10:34:36;;;;;;;17.77;4.05;;;9.60;92.70;;;;;;5115650;28;20055;-79
2024/01/03 10:37:03;;;;;;;30.38;4.25;;;9.50;93.00;;;;;;5098962;27;20039;-79
2024/01/03 10:39:31;;;;;;;25.83;4.15;;;9.50;93.00;;;;;;5135888;27;20039;-80
2024/01/03 10:41:58;;;;;;;24.20;4.22;;;9.60;93.00;;;;;;5136257;27;20066;-79
2024/01/03 10:44:24;;;;;;;22.17;4.30;;;9.70;93.00;;;;;;5102184;27;20057;-80
2024/01/03 10:46:54;;;;;;;17.50;4.22;;;9.60;93.00;;;;;;5136002;27;20039;-80
2024/01/03 10:49:20;;;;;;;18.80;3.88;;;9.70;93.10;;;;;;5118627;27;20043;-79
2024/01/03 10:51:51;;;;;;;28.52;6.40;;;9.60;93.20;;;;;;5084807;27;20258;-80
2024/01/03 10:54:19;;;;;;;17.95;4.65;;;9.70;93.40;;;;;;5135707;27;20042;-80
2024/01/03 10:56:52;;;;;;;22.13;4.28;;;9.70;93.40;;;;;;5118527;27;20031;-80
2024/01/03 10:59:20;;;;;;;27.67;4.60;;;9.70;93.30;;;;;;5118706;27;20174;-80
2024/01/03 11:02:03;;;;;;;16.55;4.68;;;9.70;93.30;;;;;;5135522;27;20043;-80
2024/01/03 11:05:02;;;;;;;21.90;4.95;;;9.70;93.30;;;;;;5118764;27;20039;-80
2024/01/03 11:07:44;;;;;;;21.23;4.68;;;9.80;92.90;;;;;;5118537;27;20042;-80
2024/01/03 11:10:10;;;;;;;23.27;4.50;;;9.70;93.20;;;;;;5135738;27;20039;-79
2024/01/03 11:12:35;;;;;;;17.95;3.75;;;9.70;92.90;;;;;;5135480;27;20368;-80
2024/01/03 11:15:26;;;;;;;21.60;4.45;;;9.80;93.00;;;;;;5101527;27;20391;-80
2024/01/03 11:17:52;;;;;;;21.35;4.78;;;10.00;92.90;;;;;;5118363;27;20027;-80
2024/01/03 11:20:30;;;;;;;21.98;4.63;;;10.00;93.00;;;;;;5118127;27;20087;-80
2024/01/03 11:23:04;;;;;;;20.75;4.55;;;10.10;92.90;;;;;;5118152;27;20487;-80
2024/01/03 11:25:49;;;;;;;25.10;5.38;;;10.20;92.70;;;;;;5135392;27;20394;-80
2024/01/03 11:28:36;;;;;;;16.65;3.80;;;10.30;92.70;;;;;;5134953;27;20050;-80
2024/01/03 11:31:01;;;;;;;26.70;4.28;;;10.40;92.40;;;;;;5118365;27;20494;-80
2024/01/03 11:33:38;;;;;;;24.65;5.22;;;10.40;91.60;;;;;;5118387;27;20487;-80
2024/01/03 11:36:05;;;;;;;14.35;3.00;;;10.40;91.50;;;;;;5135401;27;20054;-79
2024/01/03 11:38:40;;;;;;;16.27;3.50;;;10.40;91.30;;;;;;5118120;27;20097;-80
2024/01/03 11:41:08;;;;;;;20.27;4.28;;;10.40;91.00;;;;;;5135094;27;20050;-79
2024/01/03 11:43:34;;;;;;;20.73;3.70;;;10.40;90.90;;;;;;5135128;27;20046;-79
2024/01/03 11:46:10;;;;;;;20.40;4.55;;;10.40;90.80;;;;;;5134766;27;20039;-80
2024/01/03 11:48:38;;;;;;;17.77;3.88;;;10.40;91.10;;;;;;5117329;27;20035;-80
2024/01/03 11:51:25;;;;;;;20.08;5.18;;;10.40;90.90;;;;;;5117729;27;20387;-80
2024/01/03 11:53:52;;;;;;;21.48;4.35;;;10.40;90.90;;;;;;5117629;27;20387;-79
2024/01/03 11:56:31;;;;;;;17.58;3.65;;;10.30;90.90;;;;;;5100683;27;20435;-80
2024/01/03 11:58:57;;;;;;;13.70;4.07;;;10.30;91.10;;;;;;5117587;27;20436;-80
2024/01/03 12:01:24;;;;;;;13.55;3.42;;;10.30;91.00;;;;;;5100730;27;20402;-80
2024/01/03 12:03:51;;;;;;;20.98;3.70;;;10.30;91.00;;;;;;5117613;27;20452;-80
2024/01/03 12:06:21;;;;;;;17.85;3.65;;;10.20;90.90;;;;;;5117474;27;20135;-79
2024/01/03 12:08:47;;;;;;;16.73;3.45;;;10.20;90.90;;;;;;5117608;27;20047;-80
2024/01/03 12:11:14;;;;;;;13.95;3.10;;;10.20;91.20;;;;;;5100550;27;20053;-80
2024/01/03 12:13:40;;;;;;;15.00;3.65;;;10.20;91.00;;;;;;5117005;27;20051;-80
2024/01/03 12:16:06;;;;;;;14.35;3.35;;;10.20;91.10;;;;;;5117356;27;20382;-80
2024/01/03 12:18:32;;;;;;;18.15;3.33;;;10.10;91.00;;;;;;5083379;27;20391;-79
2024/01/03 12:21:10;;;;;;;27.08;5.93;;;10.10;91.10;;;;;;5100277;27;20411;-79
2024/01/03 12:23:36;;;;;;;13.93;3.78;;;10.10;91.10;;;;;;5134316;27;20372;-79
2024/01/03 12:26:12;;;;;;;13.38;3.45;;;10.10;91.20;;;;;;5100108;27;20041;-79
2024/01/03 12:28:37;;;;;;;15.88;2.95;;;10.10;91.50;;;;;;5100077;27;20063;-80
2024/01/03 12:31:16;;;;;;;14.35;3.88;;;10.00;91.60;;;;;;5133788;27;20432;-79
2024/01/03 12:33:42;;;;;;;18.63;3.63;;;10.00;91.50;;;;;;5116473;27;20047;-79
2024/01/03 12:36:08;;;;;;;17.75;3.83;;;10.00;91.70;;;;;;5099731;27;20399;-79
2024/01/03 12:38:33;;;;;;;17.42;3.92;;;10.10;91.80;;;;;;5116495;27;20035;-80
2024/01/03 12:40:59;;;;;;;20.33;4.82;;;10.00;91.70;;;;;;5117010;27;20050;-80
2024/01/03 12:43:25;;;;;;;18.77;3.80;;;9.90;91.60;;;;;;5082862;27;20626;-79
2024/01/03 12:45:50;;;;;;;15.32;3.50;;;10.00;91.80;;;;;;5082884;27;20079;-80